createdAt,value
2017-11-22T00:00:04.205Z,8.27
2017-11-22T00:00:08.240Z,8.4
2017-11-22T00:00:12.289Z,8.27
2017-11-22T00:00:16.651Z,8.28
2017-11-22T00:00:20.817Z,8.31
2017-11-22T00:00:25.240Z,8.32
2017-11-22T00:00:29.400Z,8.28
2017-11-22T00:00:33.564Z,8.4
2017-11-22T00:00:37.832Z,8.32
2017-11-22T00:00:41.985Z,8.36
2017-11-22T00:00:46.250Z,8.37
2017-11-22T00:00:50.531Z,8.43
2017-11-22T00:00:54.789Z,8.31
2017-11-22T00:00:58.943Z,8.4
2017-11-22T00:01:03.337Z,8.34
2017-11-22T00:01:07.276Z,8.29
2017-11-22T00:01:11.544Z,8.27
2017-11-22T00:01:15.699Z,8.28
2017-11-22T00:01:20.079Z,8.37
2017-11-22T00:01:24.223Z,8.4
2017-11-22T00:01:28.370Z,8.4
2017-11-22T00:01:32.336Z,8.29
2017-11-22T00:01:36.621Z,8.29
2017-11-22T00:01:40.996Z,8.32
2017-11-22T00:01:45.282Z,8.34
2017-11-22T00:01:49.562Z,8.28
2017-11-22T00:01:53.921Z,8.28
2017-11-22T00:01:58.300Z,8.36
2017-11-22T00:02:02.348Z,8.29
2017-11-22T00:02:06.395Z,8.39
2017-11-22T00:02:10.545Z,8.31
2017-11-22T00:02:14.936Z,8.29
2017-11-22T00:02:19.203Z,8.36
2017-11-22T00:02:23.470Z,8.27
2017-11-22T00:02:27.736Z,8.37
2017-11-22T00:02:32.099Z,8.4
2017-11-22T00:02:36.492Z,8.4
2017-11-22T00:02:40.777Z,8.37
2017-11-22T00:02:45.035Z,8.4
2017-11-22T00:02:49.285Z,8.4
2017-11-22T00:02:53.671Z,8.43
2017-11-22T00:02:57.903Z,8.36
2017-11-22T00:03:02.204Z,8.27
2017-11-22T00:03:06.475Z,8.43
2017-11-22T00:03:10.749Z,8.32
2017-11-22T00:03:15.002Z,8.39
2017-11-22T00:03:19.048Z,8.37
2017-11-22T00:03:23.188Z,8.28
2017-11-22T00:03:27.322Z,8.28
2017-11-22T00:03:31.347Z,8.4
2017-11-22T00:03:35.498Z,8.36
2017-11-22T00:03:39.662Z,8.39
2017-11-22T00:03:43.920Z,8.37
2017-11-22T00:03:48.308Z,8.34
2017-11-22T00:03:52.673Z,8.36
2017-11-22T00:03:57.055Z,8.37
2017-11-22T00:04:01.780Z,8.29
2017-11-22T00:04:05.814Z,8.32
2017-11-22T00:04:10.068Z,8.36
2017-11-22T00:04:14.110Z,8.37
2017-11-22T00:04:18.478Z,8.4
2017-11-22T00:04:22.635Z,8.4
2017-11-22T00:04:27.081Z,8.37
2017-11-22T00:04:31.330Z,8.37
2017-11-22T00:04:35.582Z,8.34
2017-11-22T00:04:39.845Z,8.32
2017-11-22T00:04:44.131Z,8.34
2017-11-22T00:04:48.388Z,8.31
2017-11-22T00:04:52.650Z,8.36
2017-11-22T00:04:57.084Z,8.28
2017-11-22T00:05:01.342Z,8.36
2017-11-22T00:05:05.472Z,8.4
2017-11-22T00:05:09.871Z,8.43
2017-11-22T00:05:14.250Z,8.4
2017-11-22T00:05:18.518Z,8.36
2017-11-22T00:05:22.654Z,8.27
2017-11-22T00:05:26.918Z,8.34
2017-11-22T00:05:31.165Z,8.39
2017-11-22T00:05:35.310Z,8.29
2017-11-22T00:05:39.686Z,8.31
2017-11-22T00:05:44.078Z,8.4
2017-11-22T00:05:48.452Z,8.4
2017-11-22T00:05:52.641Z,8.32
2017-11-22T00:05:56.911Z,8.37
2017-11-22T00:06:01.194Z,8.39
2017-11-22T00:06:05.710Z,8.36
2017-11-22T00:06:09.874Z,8.36
2017-11-22T00:06:14.239Z,8.29
2017-11-22T00:06:18.492Z,8.34
2017-11-22T00:06:22.541Z,8.39
2017-11-22T00:06:26.797Z,8.43
2017-11-22T00:06:31.184Z,8.39
2017-11-22T00:06:35.566Z,8.36
2017-11-22T00:06:39.609Z,8.37
2017-11-22T00:06:43.862Z,8.4
2017-11-22T00:06:48.247Z,8.34
2017-11-22T00:06:52.506Z,8.45
2017-11-22T00:06:56.662Z,8.39
2017-11-22T00:07:01.049Z,8.4
2017-11-22T00:07:05.413Z,8.37
2017-11-22T00:07:09.669Z,8.37
2017-11-22T00:07:14.051Z,8.39
2017-11-22T00:07:18.365Z,8.4
2017-11-22T00:07:22.625Z,8.37
2017-11-22T00:07:26.894Z,8.34
2017-11-22T00:07:31.175Z,8.37
2017-11-22T00:07:35.344Z,8.37
2017-11-22T00:07:39.627Z,8.4
2017-11-22T00:07:44.003Z,8.39
2017-11-22T00:07:48.364Z,8.37
2017-11-22T00:07:52.661Z,8.39
2017-11-22T00:07:57.053Z,8.4
2017-11-22T00:08:01.319Z,8.4
2017-11-22T00:08:05.701Z,8.37
2017-11-22T00:08:10.089Z,8.31
2017-11-22T00:08:14.234Z,8.39
2017-11-22T00:08:18.427Z,8.39
2017-11-22T00:08:22.703Z,8.37
2017-11-22T00:08:26.987Z,8.34
2017-11-22T00:08:31.246Z,8.4
2017-11-22T00:08:35.485Z,8.29
2017-11-22T00:08:39.873Z,8.36
2017-11-22T00:08:44.140Z,8.29
2017-11-22T00:08:48.285Z,8.37
2017-11-22T00:08:52.675Z,8.34
2017-11-22T00:08:57.048Z,8.27
2017-11-22T00:09:01.296Z,8.37
2017-11-22T00:09:05.727Z,8.34
2017-11-22T00:09:09.983Z,8.37
2017-11-22T00:09:14.252Z,8.29
2017-11-22T00:09:18.631Z,8.45
2017-11-22T00:09:22.997Z,8.36
2017-11-22T00:09:27.353Z,8.39
2017-11-22T00:09:31.624Z,8.28
2017-11-22T00:09:35.884Z,8.36
2017-11-22T00:09:40.151Z,8.36
2017-11-22T00:09:44.534Z,8.37
2017-11-22T00:09:48.807Z,8.31
2017-11-22T00:09:53.072Z,8.4
2017-11-22T00:09:57.466Z,8.27
2017-11-22T00:10:01.837Z,8.29
2017-11-22T00:10:06.121Z,8.37
2017-11-22T00:10:10.281Z,8.32
2017-11-22T00:10:14.218Z,8.39
2017-11-22T00:10:18.377Z,8.37
2017-11-22T00:10:22.753Z,8.32
2017-11-22T00:10:27.171Z,8.39
2017-11-22T00:10:31.322Z,8.39
2017-11-22T00:10:35.585Z,8.29
2017-11-22T00:10:39.844Z,8.37
2017-11-22T00:10:44.109Z,8.36
2017-11-22T00:10:48.469Z,8.4
2017-11-22T00:10:52.632Z,8.4
2017-11-22T00:10:57.026Z,8.37
2017-11-22T00:11:01.747Z,8.39
2017-11-22T00:11:05.915Z,8.37
2017-11-22T00:11:10.208Z,8.36
2017-11-22T00:11:14.464Z,8.37
2017-11-22T00:11:18.611Z,8.42
2017-11-22T00:11:22.908Z,8.31
2017-11-22T00:11:27.268Z,8.36
2017-11-22T00:11:31.303Z,8.4
2017-11-22T00:11:35.596Z,8.36
2017-11-22T00:11:39.962Z,8.39
2017-11-22T00:11:44.210Z,8.43
2017-11-22T00:11:48.581Z,8.39
2017-11-22T00:11:52.965Z,8.39
2017-11-22T00:11:57.226Z,8.29
2017-11-22T00:12:01.645Z,8.34
2017-11-22T00:12:05.815Z,8.37
2017-11-22T00:12:10.182Z,8.29
2017-11-22T00:12:14.584Z,8.36
2017-11-22T00:12:18.844Z,8.39
2017-11-22T00:12:22.885Z,8.34
2017-11-22T00:12:27.147Z,8.34
2017-11-22T00:12:31.420Z,8.36
2017-11-22T00:12:35.553Z,8.29
2017-11-22T00:12:39.932Z,8.37
2017-11-22T00:12:44.097Z,8.36
2017-11-22T00:12:48.355Z,8.36
2017-11-22T00:12:52.610Z,8.36
2017-11-22T00:12:57.009Z,8.37
2017-11-22T00:13:01.125Z,8.29
2017-11-22T00:13:05.698Z,8.37
2017-11-22T00:13:10.094Z,8.39
2017-11-22T00:13:14.368Z,8.39
2017-11-22T00:13:18.520Z,8.37
2017-11-22T00:13:22.789Z,8.34
2017-11-22T00:13:27.080Z,8.32
2017-11-22T00:13:31.355Z,8.39
2017-11-22T00:13:35.620Z,8.34
2017-11-22T00:13:39.907Z,8.37
2017-11-22T00:13:44.067Z,8.37
2017-11-22T00:13:48.449Z,8.42
2017-11-22T00:13:52.629Z,8.36
2017-11-22T00:13:56.669Z,8.37
2017-11-22T00:14:01.056Z,8.36
2017-11-22T00:14:05.491Z,8.4
2017-11-22T00:14:09.629Z,8.39
2017-11-22T00:14:13.995Z,8.36
2017-11-22T00:14:18.401Z,8.4
2017-11-22T00:14:22.447Z,8.37
2017-11-22T00:14:26.815Z,8.37
2017-11-22T00:14:31.086Z,8.36
2017-11-22T00:14:35.450Z,8.34
2017-11-22T00:14:39.703Z,8.37
2017-11-22T00:14:44.078Z,8.36
2017-11-22T00:14:48.448Z,8.34
2017-11-22T00:14:52.832Z,8.34
2017-11-22T00:14:57.209Z,8.37
2017-11-22T00:15:01.242Z,8.37
2017-11-22T00:15:05.645Z,8.34
2017-11-22T00:15:09.929Z,8.4
2017-11-22T00:15:14.194Z,8.39
2017-11-22T00:15:18.324Z,8.37
2017-11-22T00:15:22.584Z,8.39
2017-11-22T00:15:26.958Z,8.4
2017-11-22T00:15:31.116Z,8.39
2017-11-22T00:15:35.045Z,8.37
2017-11-22T00:15:39.411Z,8.4
2017-11-22T00:15:43.658Z,8.36
2017-11-22T00:15:47.922Z,8.37
2017-11-22T00:15:52.313Z,8.36
2017-11-22T00:15:56.579Z,8.42
2017-11-22T00:16:00.835Z,8.34
2017-11-22T00:16:05.215Z,8.31
2017-11-22T00:16:09.609Z,8.37
2017-11-22T00:16:13.651Z,8.39
2017-11-22T00:16:18.014Z,8.39
2017-11-22T00:16:22.395Z,8.39
2017-11-22T00:16:26.655Z,8.36
2017-11-22T00:16:30.928Z,8.37
2017-11-22T00:16:34.975Z,8.42
2017-11-22T00:16:39.350Z,8.36
2017-11-22T00:16:43.507Z,8.36
2017-11-22T00:16:47.780Z,8.39
2017-11-22T00:16:51.929Z,8.34
2017-11-22T00:16:56.091Z,8.39
2017-11-22T00:17:00.377Z,8.42
2017-11-22T00:17:04.901Z,8.43
2017-11-22T00:17:09.294Z,8.42
2017-11-22T00:17:13.570Z,8.45
2017-11-22T00:17:17.944Z,8.39
2017-11-22T00:17:22.305Z,8.37
2017-11-22T00:17:26.360Z,8.36
2017-11-22T00:17:30.629Z,8.4
2017-11-22T00:17:34.552Z,8.34
2017-11-22T00:17:38.839Z,8.39
2017-11-22T00:17:42.980Z,8.37
2017-11-22T00:17:47.234Z,8.39
2017-11-22T00:17:51.530Z,8.4
2017-11-22T00:17:55.844Z,8.37
2017-11-22T00:18:00.094Z,8.36
2017-11-22T00:18:04.468Z,8.34
2017-11-22T00:18:08.637Z,8.39
2017-11-22T00:18:12.788Z,8.4
2017-11-22T00:18:17.039Z,8.46
2017-11-22T00:18:21.406Z,8.4
2017-11-22T00:18:25.788Z,8.37
2017-11-22T00:18:29.932Z,8.39
2017-11-22T00:18:34.187Z,8.42
2017-11-22T00:18:38.459Z,8.4
2017-11-22T00:18:42.841Z,8.42
2017-11-22T00:18:47.125Z,8.42
2017-11-22T00:18:51.390Z,8.4
2017-11-22T00:18:55.421Z,8.43
2017-11-22T00:18:59.456Z,8.46
2017-11-22T00:19:03.818Z,8.43
2017-11-22T00:19:08.169Z,8.37
2017-11-22T00:19:12.314Z,8.42
2017-11-22T00:19:16.560Z,8.45
2017-11-22T00:19:20.928Z,8.4
2017-11-22T00:19:25.207Z,8.42
2017-11-22T00:19:29.238Z,8.37
2017-11-22T00:19:33.381Z,8.39
2017-11-22T00:19:37.540Z,8.42
2017-11-22T00:19:41.823Z,8.39
2017-11-22T00:19:46.199Z,8.37
2017-11-22T00:19:50.591Z,8.36
2017-11-22T00:19:54.950Z,8.46
2017-11-22T00:19:58.987Z,8.39
2017-11-22T00:20:03.239Z,8.32
2017-11-22T00:20:07.525Z,8.4
2017-11-22T00:20:11.685Z,8.43
2017-11-22T00:20:15.969Z,8.45
2017-11-22T00:20:20.182Z,8.46
2017-11-22T00:20:24.346Z,8.45
2017-11-22T00:20:28.702Z,8.45
2017-11-22T00:20:32.965Z,8.45
2017-11-22T00:20:37.219Z,8.43
2017-11-22T00:20:41.491Z,8.39
2017-11-22T00:20:45.877Z,8.45
2017-11-22T00:20:50.148Z,8.42
2017-11-22T00:20:54.429Z,8.45
2017-11-22T00:20:58.586Z,8.46
2017-11-22T00:21:03.164Z,8.45
2017-11-22T00:21:07.434Z,8.46
2017-11-22T00:21:11.702Z,8.46
2017-11-22T00:21:15.784Z,8.4
2017-11-22T00:21:20.149Z,8.43
2017-11-22T00:21:24.425Z,8.4
2017-11-22T00:21:28.462Z,8.4
2017-11-22T00:21:32.837Z,8.4
2017-11-22T00:21:37.063Z,8.43
2017-11-22T00:21:41.018Z,8.43
2017-11-22T00:21:45.387Z,8.46
2017-11-22T00:21:49.781Z,8.43
2017-11-22T00:21:53.960Z,8.43
2017-11-22T00:21:58.113Z,8.49
2017-11-22T00:22:02.360Z,8.45
2017-11-22T00:22:06.534Z,8.37
2017-11-22T00:22:10.801Z,8.34
2017-11-22T00:22:14.948Z,8.37
2017-11-22T00:22:19.218Z,8.43
2017-11-22T00:22:23.488Z,8.47
2017-11-22T00:22:27.758Z,8.49
2017-11-22T00:22:32.008Z,8.39
2017-11-22T00:22:36.410Z,8.47
2017-11-22T00:22:40.452Z,8.45
2017-11-22T00:22:44.834Z,8.4
2017-11-22T00:22:49.121Z,8.52
2017-11-22T00:22:53.440Z,8.4
2017-11-22T00:22:57.819Z,8.45
2017-11-22T00:23:01.980Z,8.54
2017-11-22T00:23:06.354Z,8.5
2017-11-22T00:23:10.743Z,8.46
2017-11-22T00:23:14.880Z,8.47
2017-11-22T00:23:19.261Z,8.54
2017-11-22T00:23:23.539Z,8.52
2017-11-22T00:23:27.807Z,8.45
2017-11-22T00:23:32.088Z,8.54
2017-11-22T00:23:36.328Z,8.46
2017-11-22T00:23:40.478Z,8.5
2017-11-22T00:23:44.774Z,8.49
2017-11-22T00:23:48.941Z,8.49
2017-11-22T00:23:53.333Z,8.49
2017-11-22T00:23:57.721Z,8.49
2017-11-22T00:24:02.089Z,8.47
2017-11-22T00:24:06.237Z,8.52
2017-11-22T00:24:10.509Z,8.55
2017-11-22T00:24:14.662Z,8.49
2017-11-22T00:24:19.035Z,8.46
2017-11-22T00:24:23.297Z,8.52
2017-11-22T00:24:27.708Z,8.52
2017-11-22T00:24:31.984Z,8.43
2017-11-22T00:24:36.248Z,8.45
2017-11-22T00:24:40.513Z,8.55
2017-11-22T00:24:44.563Z,8.55
2017-11-22T00:24:48.835Z,8.52
2017-11-22T00:24:53.098Z,8.52
2017-11-22T00:24:57.350Z,8.57
2017-11-22T00:25:01.727Z,8.61
2017-11-22T00:25:05.899Z,8.55
2017-11-22T00:25:10.271Z,8.65
2017-11-22T00:25:14.631Z,8.55
2017-11-22T00:25:18.879Z,8.55
2017-11-22T00:25:23.276Z,8.6
2017-11-22T00:25:27.640Z,8.58
2017-11-22T00:25:31.904Z,8.57
2017-11-22T00:25:36.064Z,8.57
2017-11-22T00:25:40.420Z,8.52
2017-11-22T00:25:44.676Z,8.55
2017-11-22T00:25:48.838Z,8.63
2017-11-22T00:25:52.881Z,8.67
2017-11-22T00:25:57.037Z,8.55
2017-11-22T00:26:01.294Z,8.58
2017-11-22T00:26:05.577Z,8.57
2017-11-22T00:26:09.834Z,8.58
2017-11-22T00:26:13.871Z,8.57
2017-11-22T00:26:18.144Z,8.55
2017-11-22T00:26:22.419Z,8.64
2017-11-22T00:26:26.695Z,8.55
2017-11-22T00:26:30.989Z,8.55
2017-11-22T00:26:35.035Z,8.57
2017-11-22T00:26:39.180Z,8.63
2017-11-22T00:26:43.440Z,8.6
2017-11-22T00:26:47.815Z,8.64
2017-11-22T00:26:52.060Z,8.55
2017-11-22T00:26:56.325Z,8.58
2017-11-22T00:27:00.698Z,8.61
2017-11-22T00:27:05.056Z,8.6
2017-11-22T00:27:09.350Z,8.55
2017-11-22T00:27:13.721Z,8.5
2017-11-22T00:27:17.874Z,8.57
2017-11-22T00:27:22.136Z,8.61
2017-11-22T00:27:26.516Z,8.58
2017-11-22T00:27:30.781Z,8.61
2017-11-22T00:27:35.133Z,8.6
2017-11-22T00:27:39.431Z,8.54
2017-11-22T00:27:43.692Z,8.6
2017-11-22T00:27:47.739Z,8.55
2017-11-22T00:27:52.121Z,8.64
2017-11-22T00:27:56.521Z,8.58
2017-11-22T00:28:00.767Z,8.6
2017-11-22T00:28:05.126Z,8.57
2017-11-22T00:28:09.269Z,8.52
2017-11-22T00:28:13.525Z,8.6
2017-11-22T00:28:17.788Z,8.65
2017-11-22T00:28:21.942Z,8.55
2017-11-22T00:28:26.206Z,8.63
2017-11-22T00:28:30.366Z,8.61
2017-11-22T00:28:34.752Z,8.55
2017-11-22T00:28:39.170Z,8.55
2017-11-22T00:28:43.437Z,8.55
2017-11-22T00:28:47.820Z,8.61
2017-11-22T00:28:52.091Z,8.52
2017-11-22T00:28:56.457Z,8.55
2017-11-22T00:29:00.830Z,8.58
2017-11-22T00:29:05.275Z,8.58
2017-11-22T00:29:09.645Z,8.6
2017-11-22T00:29:13.900Z,8.58
2017-11-22T00:29:17.940Z,8.61
2017-11-22T00:29:22.304Z,8.63
2017-11-22T00:29:26.682Z,8.57
2017-11-22T00:29:31.060Z,8.58
2017-11-22T00:29:35.444Z,8.67
2017-11-22T00:29:39.478Z,8.6
2017-11-22T00:29:43.864Z,8.58
2017-11-22T00:29:48.040Z,8.57
2017-11-22T00:29:52.400Z,8.57
2017-11-22T00:29:56.555Z,8.64
2017-11-22T00:30:00.818Z,8.6
2017-11-22T00:30:05.270Z,8.61
2017-11-22T00:30:09.663Z,8.61
2017-11-22T00:30:14.044Z,8.58
2017-11-22T00:30:18.407Z,8.6
2017-11-22T00:30:22.802Z,8.64
2017-11-22T00:30:27.066Z,8.6
2017-11-22T00:30:31.455Z,8.68
2017-11-22T00:30:35.724Z,8.57
2017-11-22T00:30:40.001Z,8.65
2017-11-22T00:30:44.361Z,8.65
2017-11-22T00:30:48.615Z,8.63
2017-11-22T00:30:52.979Z,8.64
2017-11-22T00:30:57.164Z,8.57
2017-11-22T00:31:01.432Z,8.64
2017-11-22T00:31:05.843Z,8.64
2017-11-22T00:31:10.242Z,8.63
2017-11-22T00:31:14.486Z,8.55
2017-11-22T00:31:18.739Z,8.63
2017-11-22T00:31:22.897Z,8.61
2017-11-22T00:31:26.941Z,8.65
2017-11-22T00:31:30.971Z,8.64
2017-11-22T00:31:35.009Z,8.64
2017-11-22T00:31:39.356Z,8.64
2017-11-22T00:31:43.757Z,8.61
2017-11-22T00:31:48.184Z,8.65
2017-11-22T00:31:52.466Z,8.64
2017-11-22T00:31:56.851Z,8.7
2017-11-22T00:32:01.230Z,8.7
2017-11-22T00:32:05.502Z,8.65
2017-11-22T00:32:09.876Z,8.64
2017-11-22T00:32:14.158Z,8.67
2017-11-22T00:32:18.537Z,8.63
2017-11-22T00:32:22.788Z,8.65
2017-11-22T00:32:27.213Z,8.75
2017-11-22T00:32:31.481Z,8.7
2017-11-22T00:32:35.733Z,8.7
2017-11-22T00:32:40.014Z,8.7
2017-11-22T00:32:44.263Z,8.67
2017-11-22T00:32:48.629Z,8.61
2017-11-22T00:32:52.890Z,8.71
2017-11-22T00:32:57.179Z,8.65
2017-11-22T00:33:01.544Z,8.68
2017-11-22T00:33:05.804Z,8.63
2017-11-22T00:33:10.072Z,8.73
2017-11-22T00:33:14.462Z,8.67
2017-11-22T00:33:18.725Z,8.71
2017-11-22T00:33:23.013Z,8.73
2017-11-22T00:33:27.150Z,8.68
2017-11-22T00:33:31.299Z,8.73
2017-11-22T00:33:35.670Z,8.68
2017-11-22T00:33:39.944Z,8.64
2017-11-22T00:33:44.092Z,8.78
2017-11-22T00:33:48.137Z,8.73
2017-11-22T00:33:52.413Z,8.71
2017-11-22T00:33:56.459Z,8.7
2017-11-22T00:34:00.844Z,8.71
2017-11-22T00:34:05.129Z,8.64
2017-11-22T00:34:09.507Z,8.7
2017-11-22T00:34:13.752Z,8.68
2017-11-22T00:34:17.778Z,8.55
2017-11-22T00:34:21.925Z,8.65
2017-11-22T00:34:26.180Z,8.71
2017-11-22T00:34:30.589Z,8.7
2017-11-22T00:34:34.865Z,8.73
2017-11-22T00:34:39.131Z,8.63
2017-11-22T00:34:43.521Z,8.76
2017-11-22T00:34:47.887Z,8.71
2017-11-22T00:34:52.273Z,8.68
2017-11-22T00:34:56.577Z,8.7
2017-11-22T00:35:00.821Z,8.76
2017-11-22T00:35:05.242Z,8.68
2017-11-22T00:35:09.615Z,8.76
2017-11-22T00:35:13.973Z,8.61
2017-11-22T00:35:18.332Z,8.76
2017-11-22T00:35:22.716Z,8.63
2017-11-22T00:35:26.974Z,8.71
2017-11-22T00:35:31.219Z,8.7
2017-11-22T00:35:35.373Z,8.73
2017-11-22T00:35:39.533Z,8.73
2017-11-22T00:35:43.675Z,8.64
2017-11-22T00:35:47.818Z,8.71
2017-11-22T00:35:52.087Z,8.75
2017-11-22T00:35:56.462Z,8.67
2017-11-22T00:36:00.749Z,8.67
2017-11-22T00:36:04.804Z,8.73
2017-11-22T00:36:08.949Z,8.73
2017-11-22T00:36:13.235Z,8.71
2017-11-22T00:36:17.529Z,8.7
2017-11-22T00:36:21.908Z,8.7
2017-11-22T00:36:26.265Z,8.73
2017-11-22T00:36:30.518Z,8.64
2017-11-22T00:36:34.556Z,8.76
2017-11-22T00:36:38.936Z,8.75
2017-11-22T00:36:43.194Z,8.68
2017-11-22T00:36:47.469Z,8.76
2017-11-22T00:36:51.847Z,8.73
2017-11-22T00:36:56.106Z,8.68
2017-11-22T00:37:00.295Z,8.75
2017-11-22T00:37:04.830Z,8.76
2017-11-22T00:37:09.103Z,8.76
2017-11-22T00:37:13.333Z,8.75
2017-11-22T00:37:17.588Z,8.73
2017-11-22T00:37:21.854Z,8.73
2017-11-22T00:37:25.896Z,8.75
2017-11-22T00:37:30.280Z,8.73
2017-11-22T00:37:34.538Z,8.78
2017-11-22T00:37:38.805Z,8.68
2017-11-22T00:37:43.075Z,8.75
2017-11-22T00:37:47.351Z,8.71
2017-11-22T00:37:51.745Z,8.79
2017-11-22T00:37:56.008Z,8.71
2017-11-22T00:38:00.052Z,8.73
2017-11-22T00:38:04.459Z,8.75
2017-11-22T00:38:08.847Z,8.71
2017-11-22T00:38:13.211Z,8.78
2017-11-22T00:38:17.464Z,8.76
2017-11-22T00:38:21.503Z,8.76
2017-11-22T00:38:25.883Z,8.79
2017-11-22T00:38:30.248Z,8.68
2017-11-22T00:38:34.415Z,8.78
2017-11-22T00:38:38.567Z,8.79
2017-11-22T00:38:42.749Z,8.79
2017-11-22T00:38:47.119Z,8.73
2017-11-22T00:38:51.521Z,8.7
2017-11-22T00:38:55.661Z,8.79
2017-11-22T00:38:59.948Z,8.78
2017-11-22T00:39:04.336Z,8.78
2017-11-22T00:39:08.600Z,8.78
2017-11-22T00:39:12.735Z,8.68
2017-11-22T00:39:17.136Z,8.8
2017-11-22T00:39:21.513Z,8.68
2017-11-22T00:39:25.769Z,8.71
2017-11-22T00:39:29.916Z,8.78
2017-11-22T00:39:34.084Z,8.76
2017-11-22T00:39:38.229Z,8.76
2017-11-22T00:39:42.612Z,8.79
2017-11-22T00:39:46.985Z,8.73
2017-11-22T00:39:51.355Z,8.73
2017-11-22T00:39:55.629Z,8.71
2017-11-22T00:39:59.784Z,8.78
2017-11-22T00:40:04.156Z,8.73
2017-11-22T00:40:08.196Z,8.71
2017-11-22T00:40:12.347Z,8.7
2017-11-22T00:40:16.614Z,8.71
2017-11-22T00:40:20.877Z,8.73
2017-11-22T00:40:25.293Z,8.71
2017-11-22T00:40:29.543Z,8.71
2017-11-22T00:40:33.913Z,8.7
2017-11-22T00:40:38.195Z,8.71
2017-11-22T00:40:42.355Z,8.71
2017-11-22T00:40:46.729Z,8.7
2017-11-22T00:40:50.780Z,8.82
2017-11-22T00:40:54.808Z,8.7
2017-11-22T00:40:58.953Z,8.73
2017-11-22T00:41:03.238Z,8.7
2017-11-22T00:41:07.398Z,8.8
2017-11-22T00:41:11.549Z,8.71
2017-11-22T00:41:15.806Z,8.76
2017-11-22T00:41:20.070Z,8.71
2017-11-22T00:41:24.477Z,8.71
2017-11-22T00:41:28.734Z,8.8
2017-11-22T00:41:33.107Z,8.85
2017-11-22T00:41:37.367Z,8.86
2017-11-22T00:41:41.734Z,8.71
2017-11-22T00:41:46.012Z,8.8
2017-11-22T00:41:50.272Z,8.82
2017-11-22T00:41:54.420Z,8.78
2017-11-22T00:41:58.568Z,8.83
2017-11-22T00:42:02.611Z,8.71
2017-11-22T00:42:06.874Z,8.75
2017-11-22T00:42:11.133Z,8.71
2017-11-22T00:42:15.495Z,8.85
2017-11-22T00:42:19.874Z,8.8
2017-11-22T00:42:24.243Z,8.83
2017-11-22T00:42:28.633Z,8.88
2017-11-22T00:42:33.000Z,8.88
2017-11-22T00:42:37.159Z,8.89
2017-11-22T00:42:41.428Z,8.82
2017-11-22T00:42:45.818Z,8.85
2017-11-22T00:42:50.207Z,8.8
2017-11-22T00:42:54.374Z,8.88
2017-11-22T00:42:58.624Z,8.79
2017-11-22T00:43:02.775Z,8.83
2017-11-22T00:43:07.165Z,8.86
2017-11-22T00:43:11.540Z,8.8
2017-11-22T00:43:15.687Z,8.88
2017-11-22T00:43:19.869Z,8.85
2017-11-22T00:43:24.279Z,8.8
2017-11-22T00:43:28.536Z,8.8
2017-11-22T00:43:32.902Z,8.83
2017-11-22T00:43:37.291Z,8.83
2017-11-22T00:43:41.658Z,8.85
2017-11-22T00:43:45.810Z,8.85
2017-11-22T00:43:49.985Z,8.82
2017-11-22T00:43:54.249Z,8.83
2017-11-22T00:43:58.640Z,8.88
2017-11-22T00:44:03.075Z,8.82
2017-11-22T00:44:07.247Z,8.85
2017-11-22T00:44:11.617Z,8.86
2017-11-22T00:44:16.021Z,8.86
2017-11-22T00:44:20.294Z,8.89
2017-11-22T00:44:24.449Z,8.85
2017-11-22T00:44:28.835Z,8.86
2017-11-22T00:44:33.200Z,8.91
2017-11-22T00:44:37.357Z,8.83
2017-11-22T00:44:41.633Z,8.86
2017-11-22T00:44:45.878Z,8.79
2017-11-22T00:44:50.147Z,8.86
2017-11-22T00:44:54.428Z,8.85
2017-11-22T00:44:58.728Z,8.83
2017-11-22T00:45:02.974Z,8.8
2017-11-22T00:45:07.144Z,8.78
2017-11-22T00:45:11.420Z,8.86
2017-11-22T00:45:15.569Z,8.8
2017-11-22T00:45:19.840Z,8.82
2017-11-22T00:45:24.100Z,8.89
2017-11-22T00:45:28.250Z,8.83
2017-11-22T00:45:32.498Z,8.91
2017-11-22T00:45:36.762Z,8.86
2017-11-22T00:45:41.146Z,8.83
2017-11-22T00:45:45.298Z,8.85
2017-11-22T00:45:49.777Z,8.83
2017-11-22T00:45:54.157Z,8.88
2017-11-22T00:45:58.406Z,8.8
2017-11-22T00:46:02.816Z,8.82
2017-11-22T00:46:06.860Z,8.85
2017-11-22T00:46:11.003Z,8.93
2017-11-22T00:46:15.259Z,8.83
2017-11-22T00:46:19.538Z,8.83
2017-11-22T00:46:23.594Z,8.8
2017-11-22T00:46:27.869Z,8.86
2017-11-22T00:46:32.134Z,8.86
2017-11-22T00:46:36.387Z,8.79
2017-11-22T00:46:40.544Z,8.89
2017-11-22T00:46:44.992Z,8.85
2017-11-22T00:46:49.390Z,8.78
2017-11-22T00:46:53.699Z,8.93
2017-11-22T00:46:57.964Z,8.86
2017-11-22T00:47:02.380Z,8.8
2017-11-22T00:47:06.661Z,8.83
2017-11-22T00:47:10.922Z,8.89
2017-11-22T00:47:15.292Z,8.85
2017-11-22T00:47:19.463Z,8.88
2017-11-22T00:47:23.838Z,8.82
2017-11-22T00:47:28.111Z,8.85
2017-11-22T00:47:32.480Z,8.8
2017-11-22T00:47:36.528Z,8.83
2017-11-22T00:47:40.794Z,8.82
2017-11-22T00:47:45.165Z,8.85
2017-11-22T00:47:49.447Z,8.85
2017-11-22T00:47:53.720Z,8.79
2017-11-22T00:47:57.993Z,8.82
2017-11-22T00:48:02.382Z,8.8
2017-11-22T00:48:06.695Z,8.83
2017-11-22T00:48:11.072Z,8.82
2017-11-22T00:48:15.231Z,8.83
2017-11-22T00:48:19.645Z,8.76
2017-11-22T00:48:24.030Z,8.8
2017-11-22T00:48:28.412Z,8.89
2017-11-22T00:48:32.830Z,8.71
2017-11-22T00:48:37.209Z,8.85
2017-11-22T00:48:41.584Z,8.78
2017-11-22T00:48:45.772Z,8.83
2017-11-22T00:48:50.022Z,8.76
2017-11-22T00:48:54.412Z,8.88
2017-11-22T00:48:58.796Z,8.83
2017-11-22T00:49:03.510Z,8.83
2017-11-22T00:49:07.770Z,8.85
2017-11-22T00:49:12.034Z,8.88
2017-11-22T00:49:16.296Z,8.89
2017-11-22T00:49:20.535Z,8.79
2017-11-22T00:49:24.690Z,8.82
2017-11-22T00:49:28.838Z,8.71
2017-11-22T00:49:33.077Z,8.79
2017-11-22T00:49:37.232Z,8.82
2017-11-22T00:49:41.494Z,8.82
2017-11-22T00:49:45.639Z,8.85
2017-11-22T00:49:50.020Z,8.82
2017-11-22T00:49:54.323Z,8.76
2017-11-22T00:49:58.700Z,8.82
2017-11-22T00:50:03.339Z,8.82
2017-11-22T00:50:07.384Z,8.8
2017-11-22T00:50:11.656Z,8.71
2017-11-22T00:50:16.027Z,8.76
2017-11-22T00:50:20.389Z,8.73
2017-11-22T00:50:24.775Z,8.8
2017-11-22T00:50:29.149Z,8.76
2017-11-22T00:50:33.409Z,8.76
2017-11-22T00:50:37.682Z,8.83
2017-11-22T00:50:41.815Z,8.76
2017-11-22T00:50:46.070Z,8.83
2017-11-22T00:50:50.485Z,8.86
2017-11-22T00:50:54.738Z,8.82
2017-11-22T00:50:59.012Z,8.71
2017-11-22T00:51:03.270Z,8.8
2017-11-22T00:51:07.417Z,8.75
2017-11-22T00:51:11.674Z,8.75
2017-11-22T00:51:16.049Z,8.7
2017-11-22T00:51:20.439Z,8.71
2017-11-22T00:51:24.702Z,8.71
2017-11-22T00:51:28.858Z,8.76
2017-11-22T00:51:32.999Z,8.73
2017-11-22T00:51:37.364Z,8.7
2017-11-22T00:51:41.527Z,8.79
2017-11-22T00:51:45.944Z,8.82
2017-11-22T00:51:50.191Z,8.73
2017-11-22T00:51:54.452Z,8.7
2017-11-22T00:51:58.833Z,8.68
2017-11-22T00:52:03.265Z,8.68
2017-11-22T00:52:07.401Z,8.73
2017-11-22T00:52:11.680Z,8.7
2017-11-22T00:52:15.949Z,8.71
2017-11-22T00:52:20.214Z,8.8
2017-11-22T00:52:24.483Z,8.68
2017-11-22T00:52:28.873Z,8.73
2017-11-22T00:52:33.009Z,8.75
2017-11-22T00:52:37.388Z,8.8
2017-11-22T00:52:41.553Z,8.73
2017-11-22T00:52:45.598Z,8.82
2017-11-22T00:52:49.864Z,8.73
2017-11-22T00:52:54.009Z,8.76
2017-11-22T00:52:58.373Z,8.75
2017-11-22T00:53:02.638Z,8.71
2017-11-22T00:53:07.074Z,8.76
2017-11-22T00:53:11.444Z,8.71
2017-11-22T00:53:15.605Z,8.71
2017-11-22T00:53:19.540Z,8.71
2017-11-22T00:53:23.915Z,8.78
2017-11-22T00:53:28.179Z,8.75
2017-11-22T00:53:32.459Z,8.73
2017-11-22T00:53:36.620Z,8.78
2017-11-22T00:53:40.989Z,8.73
2017-11-22T00:53:45.126Z,8.71
2017-11-22T00:53:49.271Z,8.75
2017-11-22T00:53:53.515Z,8.78
2017-11-22T00:53:57.773Z,8.75
2017-11-22T00:54:02.400Z,8.79
2017-11-22T00:54:06.767Z,8.8
2017-11-22T00:54:11.163Z,8.67
2017-11-22T00:54:15.309Z,8.71
2017-11-22T00:54:19.689Z,8.73
2017-11-22T00:54:23.944Z,8.79
2017-11-22T00:54:28.208Z,8.78
2017-11-22T00:54:32.474Z,8.8
2017-11-22T00:54:36.634Z,8.7
2017-11-22T00:54:40.803Z,8.78
2017-11-22T00:54:45.211Z,8.76
2017-11-22T00:54:49.578Z,8.76
2017-11-22T00:54:53.960Z,8.7
2017-11-22T00:54:58.337Z,8.73
2017-11-22T00:55:02.857Z,8.8
2017-11-22T00:55:07.124Z,8.75
2017-11-22T00:55:11.287Z,8.71
2017-11-22T00:55:15.538Z,8.7
2017-11-22T00:55:19.808Z,8.76
2017-11-22T00:55:23.949Z,8.79
2017-11-22T00:55:28.103Z,8.75
2017-11-22T00:55:32.261Z,8.73
2017-11-22T00:55:36.445Z,8.76
2017-11-22T00:55:40.607Z,8.8
2017-11-22T00:55:44.881Z,8.71
2017-11-22T00:55:49.153Z,8.73
2017-11-22T00:55:53.412Z,8.7
2017-11-22T00:55:57.671Z,8.78
2017-11-22T00:56:02.056Z,8.78
2017-11-22T00:56:06.332Z,8.76
2017-11-22T00:56:10.581Z,8.76
2017-11-22T00:56:14.843Z,8.73
2017-11-22T00:56:18.986Z,8.79
2017-11-22T00:56:23.131Z,8.73
2017-11-22T00:56:27.494Z,8.75
2017-11-22T00:56:31.742Z,8.78
2017-11-22T00:56:35.792Z,8.75
2017-11-22T00:56:40.069Z,8.82
2017-11-22T00:56:44.335Z,8.7
2017-11-22T00:56:48.490Z,8.71
2017-11-22T00:56:52.527Z,8.76
2017-11-22T00:56:56.688Z,8.68
2017-11-22T00:57:00.834Z,8.79
2017-11-22T00:57:05.448Z,8.73
2017-11-22T00:57:09.693Z,8.68